createdAt,value
2022-07-30T00:02:01.407Z,100006.44
2022-07-30T00:04:29.036Z,100008.34
2022-07-30T00:06:56.752Z,100005.00
2022-07-30T00:09:24.352Z,100001.63
2022-07-30T00:11:52.002Z,100007.06
2022-07-30T00:14:19.641Z,100017.88
2022-07-30T00:16:48.733Z,100008.44
2022-07-30T00:19:16.397Z,100009.47
2022-07-30T00:21:44.116Z,100013.97
2022-07-30T00:24:11.994Z,100014.13
2022-07-30T00:26:39.985Z,100016.81
2022-07-30T00:29:07.900Z,100007.38
2022-07-30T00:31:35.550Z,100004.13
2022-07-30T00:34:04.821Z,100013.97
2022-07-30T00:36:32.685Z,100013.25
2022-07-30T00:39:00.446Z,100009.88
2022-07-30T00:41:29.196Z,100010.00
2022-07-30T00:43:56.837Z,100010.09
2022-07-30T00:46:24.680Z,100008.47
2022-07-30T00:48:52.448Z,100008.50
2022-07-30T00:51:21.640Z,100011.13
2022-07-30T00:53:49.296Z,100006.00
2022-07-30T00:56:16.960Z,100002.56
2022-07-30T00:58:44.637Z,99996.53
2022-07-30T01:01:12.315Z,100000.94
2022-07-30T01:03:40.008Z,100007.16
2022-07-30T01:06:07.732Z,100011.56
2022-07-30T01:08:44.137Z,100008.06
2022-07-30T01:11:12.746Z,100016.88
2022-07-30T01:13:43.525Z,100006.47
2022-07-30T01:16:11.489Z,100008.22
2022-07-30T01:18:58.255Z,100003.06
2022-07-30T01:21:35.995Z,100005.78
2022-07-30T01:24:16.337Z,99999.72
2022-07-30T01:26:45.442Z,99991.97
2022-07-30T01:29:16.012Z,99992.06
2022-07-30T01:31:46.670Z,99996.44
2022-07-30T01:34:17.330Z,99997.41
2022-07-30T01:36:47.898Z,100006.16
2022-07-30T01:39:18.562Z,99995.78
2022-07-30T01:41:50.870Z,99997.69
2022-07-30T01:44:23.993Z,99995.16
2022-07-30T01:46:55.356Z,99991.72
2022-07-30T01:49:24.874Z,99992.59
2022-07-30T01:51:54.724Z,99998.66
2022-07-30T01:54:24.904Z,100004.81
2022-07-30T01:56:57.586Z,100002.25
2022-07-30T01:59:27.621Z,100010.03
2022-07-30T02:01:55.408Z,100006.59
2022-07-30T02:04:23.987Z,100007.47
2022-07-30T02:07:00.716Z,100017.06
2022-07-30T02:09:32.252Z,100017.06
2022-07-30T02:12:20.583Z,100017.06
2022-07-30T02:14:51.565Z,100015.34
2022-07-30T02:17:30.056Z,100021.47
2022-07-30T02:20:00.060Z,100029.31
2022-07-30T02:22:32.569Z,100025.00
2022-07-30T02:25:03.778Z,100030.22
2022-07-30T02:27:36.311Z,100034.59
2022-07-30T02:30:07.522Z,100030.25
2022-07-30T02:32:38.453Z,100038.13
2022-07-30T02:35:13.008Z,100044.19
2022-07-30T02:37:44.436Z,100034.69
2022-07-30T02:40:16.840Z,100039.94
2022-07-30T02:42:48.351Z,100038.22
2022-07-30T02:45:21.135Z,100034.75
2022-07-30T02:47:53.170Z,100047.81
2022-07-30T02:50:22.908Z,100048.66
2022-07-30T02:52:52.609Z,100054.75
2022-07-30T02:55:21.129Z,100058.22
2022-07-30T02:57:52.415Z,100061.72
2022-07-30T03:00:22.299Z,100055.69
2022-07-30T03:02:52.521Z,100054.81
2022-07-30T03:05:24.484Z,100067.81
2022-07-30T03:07:55.969Z,100059.16
2022-07-30T03:10:25.220Z,100066.09
2022-07-30T03:12:55.909Z,100064.38
2022-07-30T03:15:23.909Z,100063.50
2022-07-30T03:17:55.591Z,100069.56
2022-07-30T03:20:29.064Z,100066.97
2022-07-30T03:22:59.569Z,100068.69
2022-07-30T03:25:30.613Z,100073.91
2022-07-30T03:28:03.789Z,100071.31
2022-07-30T03:30:34.393Z,100070.44
2022-07-30T03:33:02.762Z,100076.50
2022-07-30T03:35:31.505Z,100077.34
2022-07-30T03:38:00.921Z,100075.59
2022-07-30T03:40:30.320Z,100077.34
2022-07-30T03:42:58.891Z,100074.75
2022-07-30T03:45:28.881Z,100079.94
2022-07-30T03:48:05.049Z,100083.41
2022-07-30T03:50:36.356Z,100090.34
2022-07-30T03:53:05.473Z,100090.34
2022-07-30T03:55:36.300Z,100092.06
2022-07-30T03:58:39.741Z,100084.22
2022-07-30T04:01:09.708Z,100093.75
2022-07-30T04:03:37.696Z,100096.34
2022-07-30T04:06:07.224Z,100087.66
2022-07-30T04:08:34.966Z,100092.00
2022-07-30T04:11:03.864Z,100097.19
2022-07-30T04:13:49.182Z,100098.06
2022-07-30T04:16:41.096Z,100093.72
2022-07-30T04:19:17.383Z,100097.19
2022-07-30T04:21:47.579Z,100112.78
2022-07-30T04:24:16.920Z,100111.88
2022-07-30T04:26:47.142Z,100102.38
2022-07-30T04:29:22.591Z,100114.50
2022-07-30T04:31:55.205Z,100106.72
2022-07-30T04:34:34.826Z,100117.97
2022-07-30T04:37:04.683Z,100123.19
2022-07-30T04:39:32.584Z,100127.50
2022-07-30T04:42:00.219Z,100126.63
2022-07-30T04:44:37.948Z,100135.31
2022-07-30T04:47:45.468Z,100138.88
2022-07-30T04:50:25.491Z,100135.41
2022-07-30T04:52:56.146Z,100130.19
2022-07-30T04:55:30.386Z,100131.94
2022-07-30T04:58:00.646Z,100133.69
2022-07-30T05:00:38.995Z,100145.84
2022-07-30T05:03:14.006Z,100145.84
2022-07-30T05:05:46.580Z,100147.56
2022-07-30T05:08:14.609Z,100145.00
2022-07-30T05:10:42.416Z,100156.28
2022-07-30T05:13:13.427Z,100152.78
2022-07-30T05:15:44.627Z,100158.00
2022-07-30T05:18:16.242Z,100159.75
2022-07-30T05:20:44.952Z,100160.59
2022-07-30T05:23:36.068Z,100154.53
2022-07-30T05:26:20.202Z,100161.50
2022-07-30T05:28:53.867Z,100158.00
2022-07-30T05:31:29.325Z,100153.63
2022-07-30T05:34:03.822Z,100157.13
2022-07-30T05:36:41.066Z,100156.25
2022-07-30T05:39:09.303Z,100156.22
2022-07-30T05:41:45.938Z,100163.13
2022-07-30T05:44:22.084Z,100159.63
2022-07-30T05:46:52.802Z,100151.78
2022-07-30T05:49:22.051Z,100162.16
2022-07-30T05:51:50.580Z,100156.91
2022-07-30T05:54:18.925Z,100162.09
2022-07-30T05:57:09.789Z,100159.47
2022-07-30T05:59:41.282Z,100151.59
2022-07-30T06:02:10.555Z,100157.59
2022-07-30T06:05:02.155Z,100156.63
2022-07-30T06:07:30.029Z,100166.09
2022-07-30T06:10:01.522Z,100171.28
2022-07-30T06:12:30.186Z,100173.75
2022-07-30T06:14:58.346Z,100169.28
2022-07-30T06:17:39.727Z,100174.47
2022-07-30T06:20:18.405Z,100170.81
2022-07-30T06:22:58.002Z,100181.97
2022-07-30T06:25:44.779Z,100172.22
2022-07-30T06:28:35.938Z,100180.81
2022-07-30T06:31:02.433Z,100176.25
2022-07-30T06:33:30.594Z,100176.19
2022-07-30T06:35:59.746Z,100169.94
2022-07-30T06:38:30.757Z,100175.91
2022-07-30T06:41:04.785Z,100183.63
2022-07-30T06:43:51.883Z,100174.75
2022-07-30T06:46:51.609Z,100178.66
2022-07-30T06:49:21.454Z,100173.97
2022-07-30T06:51:50.525Z,100185.09
2022-07-30T06:54:18.289Z,100188.31
2022-07-30T06:57:02.468Z,100179.16
2022-07-30T06:59:30.650Z,100189.38
2022-07-30T07:02:03.926Z,100183.91
2022-07-30T07:04:36.140Z,100182.69
2022-07-30T07:07:12.723Z,100190.13
2022-07-30T07:09:44.752Z,100184.50
2022-07-30T07:12:31.135Z,100185.00
2022-07-30T07:14:59.911Z,100192.91
2022-07-30T07:17:27.534Z,100196.47
2022-07-30T07:19:59.753Z,100203.00
2022-07-30T07:22:33.510Z,100194.66
2022-07-30T07:25:01.120Z,100201.63
2022-07-30T07:27:32.084Z,100194.50
2022-07-30T07:30:05.959Z,100203.09
2022-07-30T07:32:37.063Z,100208.16
2022-07-30T07:35:06.623Z,100199.63
2022-07-30T07:37:37.968Z,100199.56
2022-07-30T07:40:08.429Z,100206.81
2022-07-30T07:42:41.282Z,100192.66
2022-07-30T07:45:09.763Z,100197.75
2022-07-30T07:48:00.725Z,100187.97
2022-07-30T07:50:51.632Z,100200.84
2022-07-30T07:53:26.777Z,100193.75
2022-07-30T07:55:54.496Z,100196.97
2022-07-30T07:58:26.223Z,100204.09
2022-07-30T08:00:57.452Z,100203.91
2022-07-30T08:03:43.303Z,100195.25
2022-07-30T08:06:30.880Z,100197.72
2022-07-30T08:09:19.821Z,100196.00
2022-07-30T08:12:08.102Z,100194.09
2022-07-30T08:15:09.350Z,100193.97
2022-07-30T08:17:55.701Z,100196.50
2022-07-30T08:20:37.802Z,100191.91
2022-07-30T08:23:05.517Z,100192.50
2022-07-30T08:25:34.796Z,100192.19
2022-07-30T08:28:03.284Z,100195.31
2022-07-30T08:30:31.432Z,100197.66
2022-07-30T08:32:59.149Z,100189.66
2022-07-30T08:35:26.914Z,100187.50
2022-07-30T08:37:54.562Z,100189.91
2022-07-30T08:40:26.926Z,100185.44
2022-07-30T08:43:06.369Z,100181.97
2022-07-30T08:45:35.423Z,100176.81
2022-07-30T08:48:26.286Z,100175.09
2022-07-30T08:50:54.677Z,100195.53
2022-07-30T08:53:37.431Z,100187.00
2022-07-30T08:56:07.707Z,100191.16
2022-07-30T08:58:38.422Z,100177.97
2022-07-30T09:01:07.592Z,100182.81
2022-07-30T09:03:44.384Z,100190.56
2022-07-30T09:06:12.680Z,100185.22
2022-07-30T09:08:42.459Z,100184.50
2022-07-30T09:11:10.352Z,100194.03
2022-07-30T09:13:41.632Z,100178.13
2022-07-30T09:16:20.405Z,100190.50
2022-07-30T09:18:48.851Z,100184.03
2022-07-30T09:21:19.084Z,100193.00
2022-07-30T09:23:58.624Z,100182.34
2022-07-30T09:26:56.265Z,100179.31
2022-07-30T09:29:44.220Z,100182.59
2022-07-30T09:32:48.663Z,100182.47
2022-07-30T09:35:45.260Z,100173.66
2022-07-30T09:38:13.597Z,100184.19
2022-07-30T09:41:12.207Z,100184.75
2022-07-30T09:43:52.233Z,100179.53
2022-07-30T09:46:42.476Z,100183.66
2022-07-30T09:49:15.594Z,100184.31
2022-07-30T09:51:56.716Z,100176.97
2022-07-30T09:54:26.493Z,100174.72
2022-07-30T09:57:25.946Z,100176.63
2022-07-30T09:59:59.733Z,100181.78
2022-07-30T10:02:33.657Z,100188.53
2022-07-30T10:05:28.467Z,100187.16
2022-07-30T10:07:59.095Z,100175.50
2022-07-30T10:10:29.489Z,100173.13
2022-07-30T10:13:04.535Z,100170.09
2022-07-30T10:15:35.649Z,100179.16
2022-07-30T10:18:07.447Z,100168.69
2022-07-30T10:20:51.396Z,100169.06
2022-07-30T10:23:50.703Z,100153.72
2022-07-30T10:26:48.162Z,100166.09
2022-07-30T10:29:34.815Z,100158.69
2022-07-30T10:32:03.371Z,100167.03
2022-07-30T10:34:34.485Z,100151.63
2022-07-30T10:37:07.482Z,100158.84
2022-07-30T10:39:38.341Z,100156.22
2022-07-30T10:42:16.248Z,100152.31
2022-07-30T10:45:01.614Z,100146.97
2022-07-30T10:47:33.484Z,100139.91
2022-07-30T10:50:10.546Z,100138.72
2022-07-30T10:52:50.381Z,100153.50
2022-07-30T10:55:20.864Z,100131.50
2022-07-30T10:58:07.230Z,100147.78
2022-07-30T11:00:37.397Z,100148.22
2022-07-30T11:03:16.016Z,100146.00
2022-07-30T11:05:47.960Z,100139.47
2022-07-30T11:08:37.007Z,100141.06
2022-07-30T11:11:19.848Z,100147.34
2022-07-30T11:13:54.571Z,100132.22
2022-07-30T11:16:23.950Z,100138.22
2022-07-30T11:22:31.363Z,100144.63
2022-07-30T11:25:00.583Z,100139.41
2022-07-30T11:27:41.257Z,100135.72
2022-07-30T11:30:35.226Z,100126.16
2022-07-30T11:33:33.189Z,100114.84
2022-07-30T11:36:10.415Z,100107.44
2022-07-30T11:39:05.273Z,100111.13
2022-07-30T11:41:34.697Z,100101.03
2022-07-30T11:44:28.450Z,100102.25
2022-07-30T11:46:56.497Z,100104.84
2022-07-30T11:49:24.165Z,100120.03
2022-07-30T11:51:51.880Z,100114.84
2022-07-30T11:54:20.792Z,100109.38
2022-07-30T11:56:53.200Z,100107.38
2022-07-30T11:59:20.799Z,100114.13
2022-07-30T12:01:53.255Z,100099.09
2022-07-30T12:04:20.898Z,100109.06
2022-07-30T12:06:49.551Z,100093.22
2022-07-30T12:09:27.422Z,100111.84
2022-07-30T12:11:55.659Z,100109.13
2022-07-30T12:14:23.616Z,100098.50
2022-07-30T12:16:52.214Z,100107.59
2022-07-30T12:19:19.863Z,100095.41
2022-07-30T12:21:52.546Z,100094.41
2022-07-30T12:24:27.135Z,100096.25
2022-07-30T12:27:05.436Z,100093.81
2022-07-30T12:29:34.090Z,100097.69
2022-07-30T12:32:02.176Z,100094.22
2022-07-30T12:34:29.817Z,100089.94
2022-07-30T12:37:08.082Z,100096.16
2022-07-30T12:39:37.075Z,100093.53
2022-07-30T12:42:05.270Z,100079.88
2022-07-30T12:44:37.722Z,100066.78
2022-07-30T12:47:07.455Z,100066.28
2022-07-30T12:49:39.502Z,100065.88
2022-07-30T12:52:28.628Z,100051.78
2022-07-30T12:55:09.808Z,100069.50
2022-07-30T12:57:54.024Z,100064.59
2022-07-30T13:00:22.427Z,100060.00
2022-07-30T13:02:50.060Z,100052.81
2022-07-30T13:05:17.668Z,100048.19
2022-07-30T13:07:56.380Z,100047.69
2022-07-30T13:10:30.417Z,100049.16
2022-07-30T13:12:58.884Z,100046.22
2022-07-30T13:15:26.715Z,100033.09
2022-07-30T13:17:54.389Z,100047.28
2022-07-30T13:20:22.553Z,100045.66
2022-07-30T13:22:50.213Z,100039.06
2022-07-30T13:25:18.005Z,100032.06
2022-07-30T13:27:47.011Z,100028.28
2022-07-30T13:30:15.524Z,100035.69
2022-07-30T13:32:43.151Z,100039.38
2022-07-30T13:35:10.819Z,100028.28
2022-07-30T13:37:38.839Z,100041.63
2022-07-30T13:40:07.496Z,100033.78
2022-07-30T13:42:35.457Z,100032.25
2022-07-30T13:45:04.864Z,100038.09
2022-07-30T13:47:32.503Z,100019.63
2022-07-30T13:50:00.157Z,100020.16
2022-07-30T13:52:27.796Z,100025.28
2022-07-30T13:54:55.424Z,100019.97
2022-07-30T13:57:23.046Z,100020.78
2022-07-30T13:59:50.677Z,100016.28
2022-07-30T14:02:20.597Z,100010.31
2022-07-30T14:04:48.265Z,100011.50
2022-07-30T14:07:15.987Z,100009.66
2022-07-30T14:09:44.635Z,100000.28
2022-07-30T14:12:14.824Z,99999.84
2022-07-30T14:14:42.482Z,100003.19
2022-07-30T14:17:10.171Z,99993.81
2022-07-30T14:19:39.136Z,100007.88
2022-07-30T14:22:06.812Z,100009.59
2022-07-30T14:24:34.536Z,100002.03
2022-07-30T14:27:02.374Z,99999.16
2022-07-30T14:29:30.179Z,99990.50
2022-07-30T14:31:57.848Z,99984.94
2022-07-30T14:34:25.581Z,99995.16
2022-07-30T14:36:54.593Z,99982.69
2022-07-30T14:39:23.724Z,99987.31
2022-07-30T14:41:54.070Z,99988.94
2022-07-30T14:44:23.727Z,99983.03
2022-07-30T14:46:52.213Z,99974.59
2022-07-30T14:49:20.375Z,99982.19
2022-07-30T14:51:48.151Z,99984.13
2022-07-30T14:54:17.151Z,99980.25
2022-07-30T14:56:44.825Z,99973.84
2022-07-30T14:59:12.605Z,99980.09
2022-07-30T15:01:41.778Z,99981.34
2022-07-30T15:04:11.470Z,99973.19
2022-07-30T15:06:40.741Z,99980.59
2022-07-30T15:09:08.916Z,99967.25
2022-07-30T15:12:04.210Z,99979.31
2022-07-30T15:14:26.890Z,99977.84
2022-07-30T15:16:59.357Z,99976.97
2022-07-30T15:19:31.088Z,99973.69
2022-07-30T15:21:58.975Z,99967.00
2022-07-30T15:24:26.981Z,99968.81
2022-07-30T15:26:56.595Z,99971.09
2022-07-30T15:29:27.151Z,99979.66
2022-07-30T15:31:55.186Z,99971.63
2022-07-30T15:34:22.834Z,99972.50
2022-07-30T15:36:50.509Z,99965.47
2022-07-30T15:39:18.172Z,99964.09
2022-07-30T15:41:45.994Z,99963.16
2022-07-30T15:44:15.024Z,99966.59
2022-07-30T15:46:42.696Z,99963.25
2022-07-30T15:49:10.586Z,99960.16
2022-07-30T15:51:38.355Z,99971.59
2022-07-30T15:54:06.675Z,99962.34
2022-07-30T15:56:35.296Z,99962.13
2022-07-30T15:59:02.894Z,99959.00
2022-07-30T16:01:31.916Z,99962.19
2022-07-30T16:03:59.552Z,99963.63
2022-07-30T16:06:27.214Z,99961.25
2022-07-30T16:08:54.811Z,99950.59
2022-07-30T16:11:22.396Z,99957.69
2022-07-30T16:13:50.107Z,99946.53
2022-07-30T16:16:17.765Z,99953.25
2022-07-30T16:18:46.701Z,99952.72
2022-07-30T16:21:17.791Z,99949.34
2022-07-30T16:23:45.738Z,99951.16
2022-07-30T16:26:13.795Z,99947.69
2022-07-30T16:28:41.450Z,99950.53
2022-07-30T16:31:09.090Z,99946.56
2022-07-30T16:33:37.692Z,99948.91
2022-07-30T16:36:07.179Z,99944.22
2022-07-30T16:38:34.813Z,99955.53
2022-07-30T16:41:02.554Z,99952.97
2022-07-30T16:43:31.761Z,99956.03
2022-07-30T16:45:59.671Z,99954.91
2022-07-30T16:48:27.770Z,99955.50
2022-07-30T16:50:55.588Z,99947.13
2022-07-30T16:53:24.533Z,99949.53
2022-07-30T16:55:52.142Z,99951.34
2022-07-30T16:58:21.407Z,99970.47
2022-07-30T17:00:56.243Z,99957.19
2022-07-30T17:03:25.194Z,99953.06
2022-07-30T17:05:52.903Z,99956.78
2022-07-30T17:08:25.063Z,99952.63
2022-07-30T17:10:54.427Z,99949.47
2022-07-30T17:13:25.130Z,99959.69
2022-07-30T17:15:52.732Z,99960.16
2022-07-30T17:18:20.307Z,99959.03
2022-07-30T17:20:47.966Z,99960.13
2022-07-30T17:23:15.571Z,99969.56
2022-07-30T17:25:43.256Z,99959.72
2022-07-30T17:28:12.226Z,99957.81
2022-07-30T17:30:39.904Z,99958.25
2022-07-30T17:33:07.500Z,99962.66
2022-07-30T17:35:35.209Z,99976.88
2022-07-30T17:38:02.816Z,99968.19
2022-07-30T17:40:31.874Z,99963.16
2022-07-30T17:43:03.552Z,99965.88
2022-07-30T17:45:32.761Z,99966.31
2022-07-30T17:48:01.373Z,99972.19
2022-07-30T17:50:29.128Z,99970.69
2022-07-30T17:52:56.824Z,99978.81
2022-07-30T17:55:24.686Z,99981.81
2022-07-30T17:57:52.350Z,99981.50
2022-07-30T18:00:20.100Z,99988.56
2022-07-30T18:02:49.194Z,99989.41
2022-07-30T18:05:16.829Z,99982.41
2022-07-30T18:07:44.709Z,99989.16
2022-07-30T18:10:13.688Z,99991.63
2022-07-30T18:12:48.596Z,99985.78
2022-07-30T18:15:17.787Z,99985.53
2022-07-30T18:17:45.986Z,99992.66
2022-07-30T18:20:15.627Z,99990.84
2022-07-30T18:22:43.413Z,100002.13
2022-07-30T18:25:18.491Z,100007.75
2022-07-30T18:27:47.096Z,100002.75
2022-07-30T18:30:14.886Z,100009.81
2022-07-30T18:32:42.566Z,100002.72
2022-07-30T18:35:14.186Z,100003.56
2022-07-30T18:37:45.285Z,100010.75
2022-07-30T18:40:14.424Z,100012.69
2022-07-30T18:42:42.782Z,100022.09
2022-07-30T18:45:14.417Z,100021.44
2022-07-30T18:47:42.296Z,100028.94
2022-07-30T18:50:10.848Z,100029.88
2022-07-30T18:52:38.949Z,100030.75
2022-07-30T18:55:11.219Z,100030.91
2022-07-30T18:57:39.021Z,100029.13
2022-07-30T19:00:09.621Z,100028.25
2022-07-30T19:02:38.210Z,100039.25
2022-07-30T19:05:07.910Z,100033.81
2022-07-30T19:07:55.468Z,100039.75
2022-07-30T19:10:26.649Z,100047.53
2022-07-30T19:12:55.014Z,100047.41
2022-07-30T19:15:22.734Z,100049.00
2022-07-30T19:17:51.258Z,100052.44
2022-07-30T19:20:19.318Z,100054.72
2022-07-30T19:22:47.354Z,100056.22
2022-07-30T19:25:15.205Z,100057.47
2022-07-30T19:27:44.238Z,100055.25
2022-07-30T19:30:13.165Z,100059.50
2022-07-30T19:32:41.117Z,100066.38
2022-07-30T19:35:13.332Z,100066.03
2022-07-30T19:37:41.755Z,100075.19
2022-07-30T19:40:10.561Z,100074.78
2022-07-30T19:42:41.509Z,100076.91
2022-07-30T19:45:13.304Z,100083.47
2022-07-30T19:47:42.531Z,100088.13
2022-07-30T19:50:11.119Z,100092.69
2022-07-30T19:52:39.851Z,100098.09
2022-07-30T19:55:31.109Z,100096.75
2022-07-30T19:57:56.401Z,100105.78
2022-07-30T20:00:25.531Z,100099.97
2022-07-30T20:02:54.059Z,100108.19
2022-07-30T20:05:24.686Z,100110.25
2022-07-30T20:07:52.804Z,100117.44
2022-07-30T20:10:20.596Z,100124.59
2022-07-30T20:12:50.188Z,100119.44
2022-07-30T20:15:18.098Z,100118.63
2022-07-30T20:17:47.068Z,100124.09
2022-07-30T20:20:15.334Z,100131.25
2022-07-30T20:22:43.153Z,100128.69
2022-07-30T20:25:11.881Z,100127.31
2022-07-30T20:27:41.241Z,100127.38
2022-07-30T20:30:12.029Z,100117.13
2022-07-30T20:32:46.344Z,100126.84
2022-07-30T20:35:15.931Z,100129.66
2022-07-30T20:37:55.520Z,100135.22
2022-07-30T20:40:26.506Z,100143.22
2022-07-30T20:42:55.433Z,100142.38
2022-07-30T20:45:24.725Z,100139.94
2022-07-30T20:47:55.946Z,100141.00
2022-07-30T20:50:30.611Z,100144.78
2022-07-30T20:52:59.511Z,100138.91
2022-07-30T20:55:27.710Z,100156.63
2022-07-30T20:58:06.982Z,100150.56
2022-07-30T21:00:41.969Z,100146.28
2022-07-30T21:03:17.410Z,100150.78
2022-07-30T21:05:46.735Z,100156.09
2022-07-30T21:08:15.637Z,100158.88
2022-07-30T21:10:46.161Z,100148.75
2022-07-30T21:13:13.831Z,100151.63
2022-07-30T21:15:45.601Z,100151.81
2022-07-30T21:18:29.442Z,100157.22
2022-07-30T21:21:00.617Z,100173.03
2022-07-30T21:23:28.421Z,100162.78
2022-07-30T21:26:03.054Z,100168.25
2022-07-30T21:28:35.544Z,100164.81
2022-07-30T21:31:04.182Z,100164.88
2022-07-30T21:33:36.178Z,100170.22
2022-07-30T21:36:10.350Z,100172.06
2022-07-30T21:38:39.124Z,100175.66
2022-07-30T21:41:14.506Z,100165.28
2022-07-30T21:43:43.785Z,100170.44
2022-07-30T21:46:13.050Z,100165.19
2022-07-30T21:48:40.995Z,100168.81
2022-07-30T21:51:10.625Z,100172.41
2022-07-30T21:56:26.393Z,100179.53
2022-07-30T21:58:54.031Z,100186.63
2022-07-30T22:01:22.746Z,100188.59
2022-07-30T22:04:01.414Z,100186.88
2022-07-30T22:06:36.530Z,100181.75
2022-07-30T22:09:18.896Z,100187.94
2022-07-30T22:11:55.468Z,100189.78
2022-07-30T22:14:23.271Z,100190.78
2022-07-30T22:16:53.326Z,100192.66
2022-07-30T22:19:22.295Z,100191.16
2022-07-30T22:21:51.767Z,100192.16
2022-07-30T22:24:28.878Z,100203.63
2022-07-30T22:26:59.972Z,100200.16
2022-07-30T22:29:34.219Z,100197.63
2022-07-30T22:32:03.901Z,100200.28
2022-07-30T22:34:32.061Z,100203.78
2022-07-30T22:37:01.112Z,100202.09
2022-07-30T22:39:31.934Z,100202.13
2022-07-30T22:42:16.566Z,100197.81
2022-07-30T22:44:46.258Z,100193.44
2022-07-30T22:47:21.213Z,100197.78
2022-07-30T22:50:03.585Z,100197.75
2022-07-30T22:52:37.878Z,100196.91
2022-07-30T22:55:09.147Z,100194.34
2022-07-30T22:57:38.403Z,100193.50
2022-07-30T23:00:13.098Z,100190.16
2022-07-30T23:02:41.508Z,100194.66
2022-07-30T23:05:10.308Z,100202.63
2022-07-30T23:07:40.390Z,100199.22
2022-07-30T23:10:17.106Z,100194.97
2022-07-30T23:12:32.057Z,100176.00
2022-07-30T23:12:51.066Z,100198.53
2022-07-30T23:15:19.702Z,100197.72
2022-07-30T23:17:47.541Z,100192.56
2022-07-30T23:20:17.849Z,100203.03
2022-07-30T23:22:47.061Z,100195.25
2022-07-30T23:25:15.903Z,100199.72
2022-07-30T23:27:43.638Z,100191.91
2022-07-30T23:30:12.439Z,100193.69
2022-07-30T23:32:40.761Z,100191.09
2022-07-30T23:35:09.827Z,100190.25
2022-07-30T23:37:48.158Z,100192.91
2022-07-30T23:40:19.197Z,100192.97
2022-07-30T23:42:47.125Z,100193.03
2022-07-30T23:45:14.897Z,100189.63
2022-07-30T23:47:56.536Z,100191.41
2022-07-30T23:50:30.380Z,100195.81
2022-07-30T23:52:58.149Z,100191.53
2022-07-30T23:55:27.928Z,100192.50
2022-07-30T23:57:55.847Z,100192.56
